createdAt,value
2023-12-01T00:00:39.695Z,40.6
2023-12-01T00:01:55.996Z,41.7
2023-12-01T00:03:11.275Z,42.2
2023-12-01T00:04:27.571Z,39.7
2023-12-01T00:05:43.856Z,42.9
2023-12-01T00:07:00.143Z,39.2
2023-12-01T00:08:16.428Z,41
2023-12-01T00:09:32.714Z,39.1
2023-12-01T00:10:49.010Z,40.6
2023-12-01T00:12:05.321Z,44.6
2023-12-01T00:13:21.595Z,45
2023-12-01T00:14:37.872Z,45.2
2023-12-01T00:15:53.000Z,42.6
2023-12-01T00:17:10.445Z,37.8
2023-12-01T00:18:26.737Z,47.6
2023-12-01T00:19:42.040Z,41.1
2023-12-01T00:20:58.323Z,43.2
2023-12-01T00:22:14.632Z,47.9
2023-12-01T00:23:30.920Z,42.3
2023-12-01T00:24:47.200Z,48.1
2023-12-01T00:26:03.473Z,42.6
2023-12-01T00:27:19.792Z,49.6
2023-12-01T00:28:36.067Z,41.7
2023-12-01T00:29:52.346Z,39.4
2023-12-01T00:31:08.642Z,49.5
2023-12-01T00:32:24.927Z,44.5
2023-12-01T00:33:41.224Z,43.7
2023-12-01T00:34:57.493Z,48.6
2023-12-01T00:36:12.808Z,42
2023-12-01T00:37:29.106Z,51.5
2023-12-01T00:38:45.406Z,37.6
2023-12-01T00:40:01.665Z,45.4
2023-12-01T00:41:17.954Z,44.4
2023-12-01T00:42:34.240Z,40.2
2023-12-01T00:43:50.519Z,44.9
2023-12-01T00:45:06.818Z,42
2023-12-01T00:46:23.110Z,41.6
2023-12-01T00:47:39.390Z,38.5
2023-12-01T00:48:55.673Z,45.6
2023-12-01T00:50:11.957Z,45.5
2023-12-01T00:51:28.264Z,39.2
2023-12-01T00:52:43.551Z,34
2023-12-01T00:53:59.843Z,41.7
2023-12-01T00:55:16.155Z,41.1
2023-12-01T00:56:32.420Z,49.8
2023-12-01T00:57:48.707Z,39
2023-12-01T00:59:05.005Z,43.5
2023-12-01T01:00:21.280Z,35
2023-12-01T01:01:37.569Z,38.4
2023-12-01T01:02:53.868Z,38.5
2023-12-01T01:04:10.163Z,39.3
2023-12-01T01:05:26.440Z,41.8
2023-12-01T01:06:42.747Z,33.8
2023-12-01T01:07:59.012Z,39
2023-12-01T01:09:14.323Z,40.9
2023-12-01T01:10:30.602Z,45.3
2023-12-01T01:11:46.886Z,37.5
2023-12-01T01:13:03.183Z,39.1
2023-12-01T01:14:19.473Z,40.8
2023-12-01T01:15:35.761Z,38.7
2023-12-01T01:16:52.047Z,47.8
2023-12-01T01:18:08.328Z,39.6
2023-12-01T01:19:24.639Z,43.3
2023-12-01T01:20:40.936Z,40.1
2023-12-01T01:21:57.218Z,37.6
2023-12-01T01:23:13.480Z,37
2023-12-01T01:24:29.770Z,42.9
2023-12-01T01:25:45.067Z,39.9
2023-12-01T01:27:01.352Z,45.7
2023-12-01T01:28:17.645Z,45.6
2023-12-01T01:29:33.934Z,48.5
2023-12-01T01:30:50.238Z,44.2
2023-12-01T01:32:06.511Z,41.7
2023-12-01T01:33:22.805Z,40.7
2023-12-01T01:34:39.088Z,44.4
2023-12-01T01:35:55.380Z,47.8
2023-12-01T01:37:11.670Z,43.2
2023-12-01T01:38:27.961Z,42.3
2023-12-01T01:39:44.240Z,36.7
2023-12-01T01:41:00.540Z,40.7
2023-12-01T01:42:15.836Z,44.1
2023-12-01T01:43:32.128Z,50.8
2023-12-01T01:44:48.428Z,46.5
2023-12-01T01:46:04.702Z,52.5
2023-12-01T01:47:20.984Z,46.4
2023-12-01T01:49:53.584Z,48.1
2023-12-01T01:51:09.846Z,52.4
2023-12-01T01:52:26.146Z,51.1
2023-12-01T01:53:42.428Z,47.6
2023-12-01T01:54:58.717Z,51.7
2023-12-01T01:56:15.024Z,52
2023-12-01T01:57:31.299Z,44.9
2023-12-01T01:58:46.595Z,46.3
2023-12-01T02:00:02.879Z,45.5
2023-12-01T02:01:19.176Z,52.7
2023-12-01T02:02:35.475Z,45.1
2023-12-01T02:03:51.749Z,48.9
2023-12-01T02:05:08.000Z,42.3
2023-12-01T02:06:24.339Z,42.2
2023-12-01T02:07:40.615Z,44.6
2023-12-01T02:08:56.917Z,42.6
2023-12-01T02:10:13.207Z,46.1
2023-12-01T02:11:29.497Z,42.5
2023-12-01T02:12:45.763Z,44.2
2023-12-01T02:14:02.068Z,43.8
2023-12-01T02:15:17.376Z,58
2023-12-01T02:16:33.649Z,44.8
2023-12-01T02:17:49.951Z,51
2023-12-01T02:19:06.227Z,37.6
2023-12-01T02:20:22.525Z,44.7
2023-12-01T02:21:38.793Z,50
2023-12-01T02:22:55.108Z,45
2023-12-01T02:24:11.390Z,48.8
2023-12-01T02:25:27.682Z,51.1
2023-12-01T02:26:43.948Z,41.2
2023-12-01T02:28:00.235Z,43.9
2023-12-01T02:29:16.564Z,40.7
2023-12-01T02:30:32.806Z,46
2023-12-01T02:31:48.114Z,54.3
2023-12-01T02:33:04.418Z,44.2
2023-12-01T02:34:20.703Z,45.1
2023-12-01T02:35:37.006Z,45.6
2023-12-01T02:36:53.271Z,41.6
2023-12-01T02:38:09.549Z,48.5
2023-12-01T02:39:25.856Z,44.8
2023-12-01T02:40:42.138Z,45.2
2023-12-01T02:41:58.421Z,46.5
2023-12-01T02:43:14.698Z,40.7
2023-12-01T02:44:30.999Z,39.2
2023-12-01T02:45:47.295Z,38.5
2023-12-01T02:47:03.585Z,41.9
2023-12-01T02:48:19.882Z,43.9
2023-12-01T02:49:35.161Z,42.4
2023-12-01T02:50:51.467Z,49.3
2023-12-01T02:52:07.758Z,45.5
2023-12-01T02:53:24.032Z,47.1
2023-12-01T02:54:40.312Z,48
2023-12-01T02:55:56.614Z,40.9
2023-12-01T02:57:12.899Z,43.5
2023-12-01T02:58:29.187Z,44.2
2023-12-01T02:59:45.466Z,48.8
2023-12-01T03:01:01.751Z,40.7
2023-12-01T03:02:18.038Z,43.1
2023-12-01T03:03:34.357Z,46.8
2023-12-01T03:04:50.627Z,55
2023-12-01T03:06:05.939Z,43.1
2023-12-01T03:07:22.214Z,43.3
2023-12-01T03:08:38.497Z,51.5
2023-12-01T03:09:54.795Z,40.1
2023-12-01T03:11:11.070Z,45.8
2023-12-01T03:12:27.367Z,48.5
2023-12-01T03:13:43.654Z,50.1
2023-12-01T03:14:59.966Z,45.1
2023-12-01T03:16:16.252Z,43
2023-12-01T03:17:32.514Z,47.9
2023-12-01T03:18:48.809Z,43
2023-12-01T03:20:05.100Z,42.5
2023-12-01T03:21:21.402Z,44.6
2023-12-01T03:22:36.714Z,46.5
2023-12-01T03:23:52.973Z,38.2
2023-12-01T03:25:09.260Z,40.6
2023-12-01T03:26:25.551Z,38.7
2023-12-01T03:27:41.858Z,41.8
2023-12-01T03:28:57.144Z,41.7
2023-12-01T03:30:13.432Z,45.2
2023-12-01T03:31:29.721Z,37.8
2023-12-01T03:32:46.004Z,44.4
2023-12-01T03:34:02.308Z,34.9
2023-12-01T03:35:18.578Z,37.2
2023-12-01T03:36:34.877Z,40.9
2023-12-01T03:37:51.187Z,41.7
2023-12-01T03:39:07.461Z,38.2
2023-12-01T03:40:23.737Z,38.4
2023-12-01T03:41:40.031Z,36.4
2023-12-01T03:44:12.589Z,35.7
2023-12-01T03:45:27.904Z,36
2023-12-01T03:46:44.197Z,38.6
2023-12-01T03:48:00.490Z,43.9
2023-12-01T03:49:16.772Z,36.1
2023-12-01T03:50:33.056Z,42
2023-12-01T03:51:49.364Z,46.4
2023-12-01T03:53:05.627Z,41.3
2023-12-01T03:54:21.922Z,43.2
2023-12-01T03:55:38.229Z,37.3
2023-12-01T03:56:54.506Z,40.3
2023-12-01T03:58:10.779Z,45
2023-12-01T03:59:27.074Z,40
2023-12-01T04:00:43.380Z,47.7
2023-12-01T04:01:58.666Z,43.8
2023-12-01T04:03:14.968Z,43
2023-12-01T04:04:31.249Z,43.1
2023-12-01T04:05:47.541Z,43.7
2023-12-01T04:07:03.818Z,44.1
2023-12-01T04:08:20.104Z,45.5
2023-12-01T04:09:36.397Z,42
2023-12-01T04:10:52.693Z,45.7
2023-12-01T04:12:08.987Z,46.8
2023-12-01T04:13:25.260Z,40.7
2023-12-01T04:14:41.553Z,40.5
2023-12-01T04:15:57.844Z,40.4
2023-12-01T04:18:30.411Z,32.9
2023-12-01T04:19:45.716Z,44.2
2023-12-01T04:22:18.307Z,35.9
2023-12-01T04:23:34.583Z,37.7
2023-12-01T04:24:50.861Z,43
2023-12-01T04:26:07.169Z,38.6
2023-12-01T04:27:23.445Z,40.9
2023-12-01T04:28:39.738Z,41.5
2023-12-01T04:29:56.036Z,37.6
2023-12-01T04:31:12.305Z,40.2
2023-12-01T04:32:28.607Z,43.9
2023-12-01T04:33:44.880Z,38.8
2023-12-01T04:35:01.168Z,43.6
2023-12-01T04:36:16.495Z,37
2023-12-01T04:37:32.782Z,38
2023-12-01T04:38:49.057Z,39.8
2023-12-01T04:40:05.347Z,35.9
2023-12-01T04:41:21.626Z,35
2023-12-01T04:42:37.941Z,35.3
2023-12-01T04:43:54.215Z,43.3
2023-12-01T04:45:10.486Z,35.6
2023-12-01T04:46:26.779Z,37.8
2023-12-01T04:47:43.085Z,37.3
2023-12-01T04:48:59.355Z,38.1
2023-12-01T04:50:15.642Z,31.1
2023-12-01T04:51:31.938Z,37.1
2023-12-01T04:52:47.233Z,38.2
2023-12-01T04:54:03.518Z,37.5
2023-12-01T04:55:19.813Z,35.7
2023-12-01T04:56:36.103Z,41.2
2023-12-01T04:57:52.411Z,37
2023-12-01T04:59:08.691Z,39.4
2023-12-01T05:00:24.985Z,37.5
2023-12-01T05:01:41.245Z,42.2
2023-12-01T05:02:57.555Z,39.6
2023-12-01T05:04:13.832Z,45.1
2023-12-01T05:05:30.124Z,44.7
2023-12-01T05:06:46.403Z,48.2
2023-12-01T05:08:02.692Z,44.2
2023-12-01T05:09:18.972Z,42.6
2023-12-01T05:10:34.274Z,41.3
2023-12-01T05:11:50.572Z,40.7
2023-12-01T05:13:06.877Z,38.3
2023-12-01T05:14:23.145Z,42.3
2023-12-01T05:15:39.432Z,42.1
2023-12-01T05:16:55.757Z,37
2023-12-01T05:18:12.007Z,42.1
2023-12-01T05:19:28.300Z,38.3
2023-12-01T05:20:44.587Z,41.9
2023-12-01T05:22:00.878Z,40.1
2023-12-01T05:23:17.178Z,46.7
2023-12-01T05:24:33.449Z,39.7
2023-12-01T05:25:49.748Z,41.4
2023-12-01T05:27:05.050Z,38.6
2023-12-01T05:28:21.363Z,35.4
2023-12-01T05:29:37.625Z,34.5
2023-12-01T05:30:53.907Z,37.5
2023-12-01T05:32:10.193Z,35.1
2023-12-01T05:33:26.478Z,47.6
2023-12-01T05:34:42.790Z,40.5
2023-12-01T05:35:59.057Z,38.1
2023-12-01T05:37:15.357Z,36.6
2023-12-01T05:38:31.631Z,35.1
2023-12-01T05:41:04.239Z,34.8
2023-12-01T05:42:20.523Z,39
2023-12-01T05:43:35.805Z,37.8
2023-12-01T05:44:52.109Z,40.5
2023-12-01T05:46:08.407Z,36.9
2023-12-01T05:47:24.692Z,40.6
2023-12-01T05:48:40.978Z,38
2023-12-01T05:49:57.246Z,41.5
2023-12-01T05:51:13.551Z,41.2
2023-12-01T05:52:29.827Z,40.7
2023-12-01T05:53:46.107Z,34.7
2023-12-01T05:55:02.419Z,37.5
2023-12-01T05:56:18.688Z,36.5
2023-12-01T05:57:34.978Z,40.5
2023-12-01T05:58:51.262Z,39.8
2023-12-01T06:00:06.570Z,39.5
2023-12-01T06:01:22.858Z,36.8
2023-12-01T06:02:39.149Z,36.3
2023-12-01T06:05:11.712Z,38.1
2023-12-01T06:06:27.999Z,45.2
2023-12-01T06:07:44.297Z,40.5
2023-12-01T06:09:00.597Z,36.2
2023-12-01T06:10:16.892Z,44.9
2023-12-01T06:11:33.160Z,36.4
2023-12-01T06:12:49.457Z,41.6
2023-12-01T06:14:05.732Z,33.5
2023-12-01T06:15:22.030Z,43.8
2023-12-01T06:16:37.352Z,44.5
2023-12-01T06:17:53.625Z,42.2
2023-12-01T06:19:09.906Z,38.2
2023-12-01T06:20:26.189Z,43.9
2023-12-01T06:21:42.476Z,37.3
2023-12-01T06:22:58.758Z,39.9
2023-12-01T06:24:15.083Z,38.8
2023-12-01T06:25:31.347Z,37.9
2023-12-01T06:28:03.919Z,43.6
2023-12-01T06:29:20.215Z,39.7
2023-12-01T06:30:36.495Z,42.4
2023-12-01T06:31:52.793Z,37.6
2023-12-01T06:33:08.082Z,38.2
2023-12-01T06:34:24.373Z,43.2
2023-12-01T06:35:40.684Z,35.8
2023-12-01T06:36:56.951Z,49.8
2023-12-01T06:38:13.238Z,45.5
2023-12-01T06:39:29.570Z,44.4
2023-12-01T06:40:45.829Z,40.7
2023-12-01T06:42:02.107Z,39.8
2023-12-01T06:43:18.400Z,41.6
2023-12-01T06:44:34.686Z,41.4
2023-12-01T06:45:50.973Z,41.3
2023-12-01T06:47:07.261Z,37.3
2023-12-01T06:48:23.576Z,39.1
2023-12-01T06:49:38.814Z,41.9
2023-12-01T06:50:55.095Z,38.6
2023-12-01T06:52:11.382Z,37.5
2023-12-01T06:53:27.619Z,39.9
2023-12-01T06:56:00.092Z,44.6
2023-12-01T06:57:16.322Z,42.1
2023-12-01T06:58:32.565Z,34.9
2023-12-01T06:59:48.802Z,36.4
2023-12-01T07:01:05.053Z,39.2
2023-12-01T07:02:21.266Z,38.2
2023-12-01T07:03:37.511Z,38.7
2023-12-01T07:04:53.747Z,34.9
2023-12-01T07:06:08.990Z,41.2
2023-12-01T07:08:41.456Z,36.5
2023-12-01T07:09:57.682Z,35.8
2023-12-01T07:11:13.923Z,38.2
2023-12-01T07:12:30.158Z,31.6
2023-12-01T07:13:46.406Z,29.5
2023-12-01T07:15:02.635Z,33.2
2023-12-01T07:16:18.880Z,39.8
2023-12-01T07:17:35.111Z,34.4
2023-12-01T07:18:51.330Z,34.4
2023-12-01T07:20:07.569Z,33
2023-12-01T07:21:23.807Z,35.4
2023-12-01T07:22:39.041Z,31.9
2023-12-01T07:23:55.276Z,36.1
2023-12-01T07:25:11.510Z,39.1
2023-12-01T07:26:27.744Z,34.7
2023-12-01T07:27:43.979Z,32
2023-12-01T07:29:00.220Z,36.7
2023-12-01T07:30:16.467Z,37.2
2023-12-01T07:31:32.688Z,35.6
2023-12-01T07:32:48.923Z,35.8
2023-12-01T07:34:05.155Z,38.5
2023-12-01T07:35:21.411Z,32.3
2023-12-01T07:36:37.614Z,32.1
2023-12-01T07:37:53.859Z,33.6
2023-12-01T07:39:09.101Z,37.4
2023-12-01T07:40:25.327Z,41.7
2023-12-01T07:41:41.589Z,32.6
2023-12-01T07:42:57.812Z,33.8
2023-12-01T07:44:14.049Z,32.1
2023-12-01T07:45:29.300Z,38.3
2023-12-01T07:46:45.556Z,35.6
2023-12-01T07:48:01.788Z,31.9
2023-12-01T07:49:18.003Z,35.7
2023-12-01T07:50:34.232Z,31.9
2023-12-01T07:51:50.479Z,33.8
2023-12-01T07:53:06.701Z,32.8
2023-12-01T07:54:22.934Z,28.5
2023-12-01T07:55:39.175Z,33.5
2023-12-01T07:56:55.408Z,29.4
2023-12-01T07:59:27.863Z,29.1
2023-12-01T08:00:44.104Z,31.4
2023-12-01T08:01:59.348Z,30.2
2023-12-01T08:03:15.601Z,40.5
2023-12-01T08:04:31.814Z,32.5
2023-12-01T08:05:48.082Z,28.5
2023-12-01T08:07:04.312Z,29.8
2023-12-01T08:08:20.540Z,25.3
2023-12-01T08:09:36.775Z,30.8
2023-12-01T08:10:53.005Z,27.5
2023-12-01T08:12:09.230Z,31.9
2023-12-01T08:13:25.488Z,32.7
2023-12-01T08:14:41.687Z,30.8
2023-12-01T08:15:57.940Z,25.3
2023-12-01T08:17:14.164Z,30
2023-12-01T08:18:29.414Z,28.5
2023-12-01T08:19:45.641Z,34
2023-12-01T08:21:01.897Z,28.6
2023-12-01T08:22:18.120Z,30.6
2023-12-01T08:23:34.364Z,34.1
2023-12-01T08:24:50.590Z,34.1
2023-12-01T08:26:06.831Z,28.9
2023-12-01T08:27:23.044Z,33.6
2023-12-01T08:28:39.289Z,37.4
2023-12-01T08:29:55.527Z,27.9
2023-12-01T08:31:11.752Z,29
2023-12-01T08:33:44.220Z,28.5
2023-12-01T08:34:59.460Z,26
2023-12-01T08:36:15.713Z,31.6
2023-12-01T08:37:31.947Z,33.5
2023-12-01T08:38:48.164Z,28.6
2023-12-01T08:40:04.409Z,27.6
2023-12-01T08:41:20.641Z,27
2023-12-01T08:42:36.873Z,31.3
2023-12-01T08:43:53.099Z,38.2
2023-12-01T08:45:09.345Z,35.8
2023-12-01T08:46:25.582Z,31.1
2023-12-01T08:47:41.819Z,34.3
2023-12-01T08:50:14.288Z,36.2
2023-12-01T08:51:29.528Z,28.6
2023-12-01T08:52:45.769Z,31.3
2023-12-01T08:54:02.011Z,29.5
2023-12-01T08:55:18.241Z,29.9
2023-12-01T08:56:34.495Z,32.4
2023-12-01T08:57:50.719Z,34
2023-12-01T08:59:06.933Z,31
2023-12-01T09:00:23.187Z,25.6
2023-12-01T09:02:55.645Z,33
2023-12-01T09:04:11.868Z,30.5
2023-12-01T09:05:28.103Z,30.7
2023-12-01T09:06:44.331Z,31.6
2023-12-01T09:07:59.600Z,27.9
2023-12-01T09:09:15.823Z,31
2023-12-01T09:10:32.076Z,29.6
2023-12-01T09:11:48.323Z,29
2023-12-01T09:13:04.534Z,27.1
2023-12-01T09:14:20.788Z,29.3
2023-12-01T09:15:36.995Z,27.7
2023-12-01T09:16:53.221Z,27.5
2023-12-01T09:18:09.474Z,28.4
2023-12-01T09:19:25.696Z,32.1
2023-12-01T09:20:41.922Z,30.5
2023-12-01T09:21:58.158Z,23.8
2023-12-01T09:23:14.400Z,30.8
2023-12-01T09:24:29.675Z,25.4
2023-12-01T09:25:45.889Z,25.5
2023-12-01T09:27:02.144Z,28.9
2023-12-01T09:28:18.352Z,24.7
2023-12-01T09:29:34.590Z,27.8
2023-12-01T09:30:50.832Z,25.9
2023-12-01T09:32:07.049Z,28.4
2023-12-01T09:33:23.289Z,28.5
2023-12-01T09:34:39.544Z,22.1
2023-12-01T09:35:55.767Z,25.7
2023-12-01T09:38:28.227Z,31.3
2023-12-01T09:41:00.689Z,22.9
2023-12-01T09:42:15.942Z,25.1
2023-12-01T09:43:32.188Z,25.2
2023-12-01T09:44:48.427Z,23.8
2023-12-01T09:46:04.649Z,29.4
2023-12-01T09:47:20.889Z,23.2
2023-12-01T09:48:37.121Z,22.2
2023-12-01T09:49:53.362Z,28.7
2023-12-01T09:51:09.578Z,25.2
2023-12-01T09:53:42.047Z,26
2023-12-01T09:54:57.330Z,30.4
2023-12-01T09:56:12.576Z,20.7
2023-12-01T09:57:28.791Z,22.9
2023-12-01T09:58:45.029Z,23.5
2023-12-01T10:00:01.268Z,21.2
2023-12-01T10:01:17.493Z,23.2
2023-12-01T10:02:33.732Z,26.4
2023-12-01T10:03:49.977Z,19.1
2023-12-01T10:05:06.201Z,20.3
2023-12-01T10:06:22.430Z,21.3
2023-12-01T10:07:37.684Z,20.3
2023-12-01T10:08:52.964Z,27.5
2023-12-01T10:10:09.185Z,21.2
2023-12-01T10:11:25.431Z,22.2
2023-12-01T10:12:41.664Z,24.7
2023-12-01T10:13:57.887Z,23.4
2023-12-01T10:15:14.142Z,18.9
2023-12-01T10:16:30.341Z,25.2
2023-12-01T10:17:46.595Z,20.1
2023-12-01T10:19:02.818Z,23.1
2023-12-01T10:20:19.053Z,21.3
2023-12-01T10:21:35.289Z,21.4
2023-12-01T10:22:51.528Z,20.1
2023-12-01T10:24:07.747Z,23.1
2023-12-01T10:25:23.000Z,22.9
2023-12-01T10:26:39.240Z,27
2023-12-01T10:27:55.463Z,24.2
2023-12-01T10:29:11.696Z,20.8
2023-12-01T10:30:27.943Z,25.3
2023-12-01T10:31:44.176Z,19.1
2023-12-01T10:33:00.411Z,21.3
2023-12-01T10:34:16.633Z,22.9
2023-12-01T10:35:32.867Z,23.9
2023-12-01T10:36:49.116Z,22.4
2023-12-01T10:38:05.363Z,34
2023-12-01T10:39:21.587Z,21.3
2023-12-01T10:40:37.831Z,20.6
2023-12-01T10:41:53.061Z,19.8
2023-12-01T10:43:09.307Z,20.3
2023-12-01T10:44:25.520Z,22.7
2023-12-01T10:45:41.764Z,23.6
2023-12-01T10:46:58.000Z,27.3
2023-12-01T10:48:14.231Z,23.5
2023-12-01T10:49:30.464Z,26.5
2023-12-01T10:50:46.711Z,23.5
2023-12-01T10:52:02.935Z,21.7
2023-12-01T10:53:19.172Z,20.7
2023-12-01T10:54:35.418Z,20.9
2023-12-01T10:57:07.872Z,26
2023-12-01T10:58:23.118Z,23.3
2023-12-01T10:59:39.363Z,23.9
2023-12-01T11:00:55.588Z,27.7
2023-12-01T11:02:11.822Z,19.9
2023-12-01T11:03:28.054Z,23.6
2023-12-01T11:04:44.297Z,26.8
2023-12-01T11:06:00.520Z,24.2
2023-12-01T11:07:16.763Z,24.1
2023-12-01T11:08:32.994Z,25.9
2023-12-01T11:09:49.220Z,24.8
2023-12-01T11:11:05.465Z,24
2023-12-01T11:12:21.724Z,29.7
2023-12-01T11:13:37.928Z,23.8
2023-12-01T11:14:53.170Z,22.8
2023-12-01T11:16:09.406Z,20.3
2023-12-01T11:17:25.639Z,21.1
2023-12-01T11:18:41.875Z,24.8
2023-12-01T11:19:58.110Z,23.5
2023-12-01T11:22:30.584Z,19
2023-12-01T11:23:46.829Z,24
2023-12-01T11:25:03.061Z,22.5
2023-12-01T11:26:19.294Z,18.5
2023-12-01T11:27:35.540Z,19.7
2023-12-01T11:28:51.761Z,23
2023-12-01T11:30:07.986Z,22.9
2023-12-01T11:31:23.229Z,23.4
2023-12-01T11:32:39.476Z,19.1
2023-12-01T11:33:55.718Z,22.7
2023-12-01T11:35:11.948Z,27.8
2023-12-01T11:36:28.207Z,21.1
2023-12-01T11:37:44.413Z,20.6
2023-12-01T11:39:00.644Z,21.9
2023-12-01T11:40:16.871Z,21.7
2023-12-01T11:41:33.118Z,19.4
2023-12-01T11:42:49.354Z,23.9
2023-12-01T11:44:05.575Z,23.3
2023-12-01T11:45:21.808Z,21.1
2023-12-01T11:47:54.273Z,23.3
2023-12-01T11:49:09.531Z,20.8
2023-12-01T11:50:25.755Z,19.9
2023-12-01T11:51:42.007Z,25.2
2023-12-01T11:52:58.226Z,21.3
2023-12-01T11:54:14.453Z,21.6
2023-12-01T11:55:30.713Z,24.5
2023-12-01T11:56:45.964Z,24.6
2023-12-01T11:58:01.232Z,21
2023-12-01T11:59:17.444Z,27.5
2023-12-01T12:00:32.684Z,22.9
2023-12-01T12:01:48.945Z,21.2
2023-12-01T12:03:05.162Z,17.2
2023-12-01T12:04:21.399Z,28
2023-12-01T12:05:37.632Z,18.7
2023-12-01T12:06:53.865Z,26.3
2023-12-01T12:08:10.097Z,20.6
2023-12-01T12:09:26.328Z,25.6
2023-12-01T12:10:42.569Z,20.3
2023-12-01T12:13:15.038Z,27.2
2023-12-01T12:14:31.273Z,24.9
2023-12-01T12:15:47.503Z,30.5
2023-12-01T12:17:02.751Z,23.5
2023-12-01T12:18:18.982Z,20.4
2023-12-01T12:19:35.218Z,17.3
2023-12-01T12:20:51.468Z,20.9
2023-12-01T12:22:07.703Z,26.1
2023-12-01T12:23:23.937Z,22.3
2023-12-01T12:25:56.394Z,24.7
2023-12-01T12:27:12.625Z,21.9
2023-12-01T12:29:45.094Z,22.9
2023-12-01T12:31:00.352Z,25.3
2023-12-01T12:32:15.619Z,28.5
2023-12-01T12:33:31.844Z,23.9
2023-12-01T12:34:48.072Z,22.7
2023-12-01T12:36:04.312Z,26.3
2023-12-01T12:37:20.572Z,21.2
2023-12-01T12:38:36.806Z,23.1
2023-12-01T12:39:53.017Z,26.3
2023-12-01T12:41:09.262Z,21.7
2023-12-01T12:42:25.482Z,23.5
2023-12-01T12:43:40.764Z,23.5
2023-12-01T12:44:56.008Z,19.3
2023-12-01T12:46:12.232Z,27.1
2023-12-01T12:47:28.470Z,22.6
2023-12-01T12:48:44.683Z,23.4
2023-12-01T12:50:00.951Z,19.4
2023-12-01T12:52:33.384Z,23.5
2023-12-01T12:53:49.625Z,24.5
2023-12-01T12:55:05.852Z,24.2
2023-12-01T12:56:22.093Z,20.4
2023-12-01T12:57:38.327Z,23.3
2023-12-01T12:58:54.559Z,17.1
2023-12-01T13:00:10.818Z,21.9
2023-12-01T13:01:26.059Z,22.3
2023-12-01T13:03:58.515Z,20.7
2023-12-01T13:05:13.786Z,19.6
2023-12-01T13:06:29.041Z,20.5
2023-12-01T13:07:45.253Z,20.8
2023-12-01T13:09:01.495Z,22.3
2023-12-01T13:10:17.734Z,23.4
2023-12-01T13:11:33.952Z,22.8
2023-12-01T13:12:50.199Z,25.3
2023-12-01T13:14:06.416Z,20.9
2023-12-01T13:15:22.666Z,20
2023-12-01T13:16:38.894Z,22.1
2023-12-01T13:17:54.163Z,26.1
2023-12-01T13:19:09.411Z,21.8
2023-12-01T13:20:25.644Z,24.7
2023-12-01T13:21:41.878Z,19.2
2023-12-01T13:22:58.109Z,20.8
2023-12-01T13:24:14.342Z,17.7
2023-12-01T13:25:30.579Z,17.6
2023-12-01T13:26:46.821Z,20.4
2023-12-01T13:28:03.045Z,19.7
2023-12-01T13:29:19.297Z,23.9
2023-12-01T13:30:35.518Z,21.8
2023-12-01T13:31:51.000Z,21.1
2023-12-01T13:33:07.980Z,18.4
2023-12-01T13:34:24.207Z,18.6
2023-12-01T13:35:39.465Z,23.2
2023-12-01T13:36:55.690Z,17.8
2023-12-01T13:38:11.942Z,18.7
2023-12-01T13:39:28.168Z,24.3
2023-12-01T13:40:44.427Z,17.8
2023-12-01T13:42:00.632Z,20.8
2023-12-01T13:43:16.876Z,21.8
2023-12-01T13:44:33.126Z,20.8
2023-12-01T13:45:49.329Z,18.7
2023-12-01T13:47:05.583Z,20.5
2023-12-01T13:48:21.806Z,21.7
2023-12-01T13:49:38.032Z,20.4
2023-12-01T13:50:54.277Z,15.2
2023-12-01T13:52:10.506Z,19.3
2023-12-01T13:54:41.986Z,22.1
2023-12-01T13:55:58.222Z,24.8
2023-12-01T13:57:14.464Z,20.6
2023-12-01T13:58:30.683Z,20.5
2023-12-01T13:59:46.933Z,16.7
2023-12-01T14:01:03.162Z,21.4
2023-12-01T14:02:19.399Z,16
2023-12-01T14:03:35.653Z,19
2023-12-01T14:04:51.876Z,22.9
2023-12-01T14:06:08.109Z,20.1
2023-12-01T14:07:24.332Z,16.3
2023-12-01T14:08:40.569Z,17.9
2023-12-01T14:09:55.808Z,19.7
2023-12-01T14:11:12.064Z,17.7
2023-12-01T14:12:28.303Z,18
2023-12-01T14:13:44.517Z,18.9
2023-12-01T14:15:00.771Z,15.8
2023-12-01T14:16:16.988Z,17.4
2023-12-01T14:17:33.209Z,19.3
2023-12-01T14:20:05.684Z,21.8
2023-12-01T14:21:21.919Z,15.6
2023-12-01T14:22:38.163Z,18.7
2023-12-01T14:23:54.398Z,21.2
2023-12-01T14:25:10.618Z,19.4
2023-12-01T14:26:25.892Z,16.5
2023-12-01T14:27:42.119Z,15.2
2023-12-01T14:28:58.337Z,17.5
2023-12-01T14:30:14.572Z,18
2023-12-01T14:31:30.829Z,17.5
2023-12-01T14:32:47.043Z,22.1
2023-12-01T14:34:03.279Z,18.4
2023-12-01T14:35:19.545Z,20.4
2023-12-01T14:36:35.750Z,35
2023-12-01T14:37:51.991Z,20.3
2023-12-01T14:39:08.218Z,17.6
2023-12-01T14:40:24.455Z,17.9
2023-12-01T14:42:56.914Z,21.5
2023-12-01T14:44:12.177Z,19.2
2023-12-01T14:45:28.393Z,20.9
2023-12-01T14:46:44.624Z,18.6
2023-12-01T14:48:00.886Z,16.6
2023-12-01T14:49:17.121Z,15.2
2023-12-01T14:50:33.346Z,18.4
2023-12-01T14:51:49.587Z,20.9
2023-12-01T14:53:05.806Z,18
2023-12-01T14:54:22.043Z,17.5
2023-12-01T14:55:38.273Z,16.2
2023-12-01T14:58:10.747Z,13.2
2023-12-01T14:59:26.975Z,17.6
2023-12-01T15:00:42.236Z,18
2023-12-01T15:01:58.450Z,16.3
2023-12-01T15:03:14.688Z,19.2
2023-12-01T15:04:30.943Z,18.5
2023-12-01T15:05:47.166Z,21.6
2023-12-01T15:07:03.406Z,20.6
2023-12-01T15:08:19.630Z,14.9
2023-12-01T15:10:52.109Z,16.2
2023-12-01T15:12:08.328Z,22.2
2023-12-01T15:13:24.575Z,17.6
2023-12-01T15:14:40.811Z,18.8
2023-12-01T15:15:57.044Z,16.7
2023-12-01T15:17:12.287Z,23.3
2023-12-01T15:18:28.505Z,14.1
2023-12-01T15:19:44.775Z,27.7
2023-12-01T15:21:00.981Z,18.3
2023-12-01T15:22:17.231Z,18.7
2023-12-01T15:23:33.447Z,18.4
2023-12-01T15:24:49.688Z,18.4
2023-12-01T15:26:05.933Z,20.1
2023-12-01T15:27:22.165Z,17.4
2023-12-01T15:28:38.388Z,18.2
2023-12-01T15:29:54.643Z,18.4
2023-12-01T15:31:10.865Z,16.1
2023-12-01T15:32:27.107Z,21.7
2023-12-01T15:33:42.353Z,14
2023-12-01T15:34:58.598Z,18.9
2023-12-01T15:36:14.803Z,19.8
2023-12-01T15:37:31.050Z,17.4
2023-12-01T15:38:47.273Z,17.1
2023-12-01T15:40:03.515Z,15.6
2023-12-01T15:41:19.740Z,19.3
2023-12-01T15:42:36.009Z,16.1
2023-12-01T15:43:52.224Z,25.2
2023-12-01T15:45:08.463Z,14.9
2023-12-01T15:46:24.697Z,15.1
2023-12-01T15:48:57.160Z,19.5
2023-12-01T15:50:12.446Z,17.6
2023-12-01T15:51:28.732Z,17.6
2023-12-01T15:52:44.982Z,15.6
2023-12-01T15:55:17.460Z,18.4
2023-12-01T15:56:33.686Z,20.2
2023-12-01T15:57:49.971Z,18.7
2023-12-01T15:59:06.255Z,17.5
2023-12-01T16:00:22.564Z,19.9
2023-12-01T16:01:38.848Z,18.1
2023-12-01T16:02:55.116Z,15.3
2023-12-01T16:04:11.421Z,18.4
2023-12-01T16:05:26.727Z,21.8
2023-12-01T16:06:42.037Z,19.6
2023-12-01T16:07:58.342Z,17.9
2023-12-01T16:09:14.631Z,20.3
2023-12-01T16:10:30.904Z,19.9
2023-12-01T16:11:47.187Z,21.7
2023-12-01T16:13:03.476Z,23
2023-12-01T16:14:19.755Z,17.4
2023-12-01T16:15:35.000Z,22
2023-12-01T16:16:51.353Z,20
2023-12-01T16:18:07.648Z,19.8
2023-12-01T16:19:23.000Z,18.4
2023-12-01T16:20:40.249Z,17
2023-12-01T16:21:56.501Z,19.3
2023-12-01T16:23:12.804Z,19.9
2023-12-01T16:24:29.092Z,18.2
2023-12-01T16:25:45.375Z,16.9
2023-12-01T16:27:01.667Z,21.2
2023-12-01T16:28:17.947Z,18.8
2023-12-01T16:29:34.233Z,19.6
2023-12-01T16:30:50.531Z,24.5
2023-12-01T16:32:05.841Z,16.1
2023-12-01T16:33:22.154Z,21
2023-12-01T16:34:38.402Z,16.9
2023-12-01T16:35:54.701Z,18.1
2023-12-01T16:37:10.982Z,19.9
2023-12-01T16:38:27.270Z,17.3
2023-12-01T16:39:43.575Z,18.3
2023-12-01T16:40:59.848Z,15.1
2023-12-01T16:42:16.142Z,17.3
2023-12-01T16:43:32.425Z,13.1
2023-12-01T16:44:48.712Z,14.8
2023-12-01T16:46:05.026Z,18.2
2023-12-01T16:47:21.284Z,15.7
2023-12-01T16:48:36.613Z,14.7
2023-12-01T16:49:52.878Z,16.8
2023-12-01T16:52:25.455Z,15
2023-12-01T16:53:41.735Z,20.9
2023-12-01T16:54:58.031Z,22.5
2023-12-01T16:56:14.328Z,19.1
2023-12-01T16:57:30.628Z,19.8
2023-12-01T16:58:46.913Z,15.8
2023-12-01T17:00:03.190Z,16.1
2023-12-01T17:01:19.497Z,15.3
2023-12-01T17:02:35.779Z,16.8
2023-12-01T17:05:08.337Z,23.9
2023-12-01T17:06:23.656Z,22.6
2023-12-01T17:07:39.950Z,24.2
2023-12-01T17:08:56.223Z,20.5
2023-12-01T17:10:12.504Z,22.2
2023-12-01T17:11:28.803Z,20.4
2023-12-01T17:12:45.084Z,24.1
2023-12-01T17:14:01.391Z,17.7
2023-12-01T17:15:17.671Z,21
2023-12-01T17:16:33.938Z,23.6
2023-12-01T17:17:50.230Z,18
2023-12-01T17:19:06.519Z,17.8
2023-12-01T17:20:22.805Z,20.9
2023-12-01T17:21:39.108Z,21.7
2023-12-01T17:22:54.428Z,20.5
2023-12-01T17:24:10.693Z,20.9
2023-12-01T17:25:26.985Z,25.8
2023-12-01T17:26:43.265Z,19.7
2023-12-01T17:27:59.547Z,20
2023-12-01T17:29:15.846Z,18.8
2023-12-01T17:30:32.123Z,20.6
2023-12-01T17:31:48.441Z,21
2023-12-01T17:33:04.701Z,21.5
2023-12-01T17:34:20.991Z,18.4
2023-12-01T17:35:37.298Z,20.8
2023-12-01T17:36:53.576Z,22.7
2023-12-01T17:38:09.863Z,17.8
2023-12-01T17:39:25.157Z,18
2023-12-01T17:40:41.451Z,17.6
2023-12-01T17:43:14.042Z,19.2